Terminal Aerodrome Forecast
Issued by NWS

Home | Current Version | Previous Version | Text Only | Print | Product List | Glossary On
Versions: 1 2 3 4 5 6 7 8 9 10 11 12 13 14 15 16 17 18 19 20
000
FTAK31 PAJN 250535
TAFAPG
TAF
PAPG 250535Z 2506/2606 00000KT P6SM VCSH FEW005 BKN018 OVC025
      TEMPO 2508/2512 2SM BR BKN005 OVC018
     FM251200 00000KT 2SM BR SCT005 OVC012
     FM251800 00000KT P6SM SCT015 OVC025
      AMD LTD TO CLD VIS AND WIND TIL 251500=

USA.gov is the U.S. government's official web portal to all federal, state and local government web resources and services.